Řízení letového provozu České republiky
Letiste: LKKU Aktualizace: 28.06.2017 05:06:13  UTC
 METAR LKKU 28.06. 05:00 ...
METAR LKKU 280500Z 16007KT 130V210 CAVOK 24/15 Q1004 RMK REG QNH 1002=